Time;durP1;ratioP1;P1;durP2;ratioP2;P2;SDS_P1;SDS_P2;PMS_P1;PMS_P2;Temp;Humidity;BMP_temperature;BMP_pressure;BME280_temperature;BME280_humidity;BME280_pressure;Samples;Min_cycle;Max_cycle;Signal;HPM_P1;HPM_P2
2022/01/02 00:01:05;;;;;;;20.88;9.60;;;;;;;;;;5015746;28;20048;-70
2022/01/02 00:03:35;;;;;;;20.92;9.85;;;;;;;;;;5015602;28;20042;-70
2022/01/02 00:06:02;;;;;;;19.02;9.65;;;;;;;;;;5016363;28;20053;-69
2022/01/02 00:08:31;;;;;;;22.55;9.93;;;;;;;;;;5015724;28;20073;-70
2022/01/02 00:10:58;;;;;;;23.25;9.63;;;;;;;;;;5015701;28;20116;-71
2022/01/02 00:13:29;;;;;;;24.88;10.48;;;;;;;;;;5015199;28;20111;-70
2022/01/02 00:15:56;;;;;;;22.48;9.65;;;;;;;;;;5015321;28;20486;-71
2022/01/02 00:18:26;;;;;;;21.70;9.20;;;;;;;;;;5015290;28;20054;-69
2022/01/02 00:20:55;;;;;;;18.65;9.32;;;;;;;;;;5015081;28;20053;-68
2022/01/02 00:23:24;;;;;;;23.60;9.50;;;;;;;;;;5014965;28;20080;-70
2022/01/02 00:25:55;;;;;;;20.85;9.38;;;;;;;;;;5015344;28;20058;-69
2022/01/02 00:28:22;;;;;;;20.17;9.30;;;;;;;;;;5015622;28;20050;-70
2022/01/02 00:30:48;;;;;;;23.40;9.45;;;;;;;;;;5015844;28;20042;-70
2022/01/02 00:33:14;;;;;;;21.15;9.88;;;;;;;;;;5015182;28;20135;-70
2022/01/02 00:35:40;;;;;;;21.63;9.70;;;;;;;;;;5014695;28;20046;-69
2022/01/02 00:38:16;;;;;;;17.58;9.32;;;;;;;;;;5013943;28;20085;-68
2022/01/02 00:40:44;;;;;;;24.52;9.15;;;;;;;;;;5014754;28;20141;-68
2022/01/02 00:43:12;;;;;;;21.40;9.77;;;;;;;;;;5014689;28;20054;-69
2022/01/02 00:45:44;;;;;;;21.45;9.40;;;;;;;;;;5014600;28;20092;-69
2022/01/02 00:48:19;;;;;;;21.42;9.70;;;;;;;;;;5015278;28;20089;-70
2022/01/02 00:50:52;;;;;;;20.55;9.75;;;;;;;;;;5014929;28;20201;-69
2022/01/02 00:53:20;;;;;;;24.25;9.90;;;;;;;;;;5015360;28;20054;-68
2022/01/02 00:55:54;;;;;;;30.13;11.27;;;;;;;;;;5014751;28;20050;-69
2022/01/02 00:58:21;;;;;;;26.80;11.15;;;;;;;;;;5015276;28;20119;-69
2022/01/02 01:00:52;;;;;;;27.67;11.23;;;;;;;;;;5015204;28;20096;-69
2022/01/02 01:03:23;;;;;;;25.73;10.85;;;;;;;;;;5014923;28;20046;-67
2022/01/02 01:05:51;;;;;;;25.83;10.77;;;;;;;;;;5014484;28;20048;-69
2022/01/02 01:08:17;;;;;;;22.98;10.30;;;;;;;;;;5013492;28;20124;-69
2022/01/02 01:10:44;;;;;;;21.10;10.38;;;;;;;;;;5014521;28;20053;-67
2022/01/02 01:13:10;;;;;;;25.02;10.43;;;;;;;;;;5014020;28;20405;-67
2022/01/02 01:15:38;;;;;;;21.80;10.43;;;;;;;;;;5014304;28;20517;-68
2022/01/02 01:18:04;;;;;;;24.02;10.70;;;;;;;;;;5015302;28;20129;-67
2022/01/02 01:20:32;;;;;;;25.90;10.82;;;;;;;;;;5014446;28;20141;-70
2022/01/02 01:22:58;;;;;;;33.13;10.95;;;;;;;;;;5015196;28;20050;-69
2022/01/02 01:25:24;;;;;;;24.27;11.30;;;;;;;;;;5014219;28;20095;-68
2022/01/02 01:27:52;;;;;;;23.13;11.15;;;;;;;;;;5013872;28;20493;-67
2022/01/02 01:30:19;;;;;;;24.30;10.70;;;;;;;;;;5014614;28;20049;-70
2022/01/02 01:32:45;;;;;;;23.98;11.82;;;;;;;;;;4996697;28;20045;-68
2022/01/02 01:35:11;;;;;;;;;;;;;;;;;;5014002;28;20054;-68
2022/01/02 01:37:38;;;;;;;27.77;11.43;;;;;;;;;;5014358;28;20362;-70
2022/01/02 01:40:04;;;;;;;;;;;;;;;;;;5013915;28;20050;-67
2022/01/02 01:42:36;;;;;;;24.05;11.80;;;;;;;;;;5014343;28;19932;-67
2022/01/02 01:45:28;;;;;;;29.80;12.77;;;;;;;;;;5013919;28;20053;-68
2022/01/02 01:47:49;;;;;;;;;;;;;;;;;;5013786;28;20107;-67
2022/01/02 01:50:16;;;;;;;29.25;12.52;;;;;;;;;;5013690;28;19921;-66
2022/01/02 01:52:43;;;;;;;24.30;12.63;;;;;;;;;;5014819;28;20175;-69
2022/01/02 01:55:09;;;;;;;29.58;13.00;;;;;;;;;;4995995;28;20050;-68
2022/01/02 01:57:36;;;;;;;23.90;12.20;;;;;;;;;;5013809;28;20060;-67
2022/01/02 02:00:01;;;;;;;;;;;;;;;;;;5013614;28;20073;-67
2022/01/02 02:02:28;;;;;;;28.02;12.70;;;;;;;;;;5013631;28;19921;-67
2022/01/02 02:04:54;;;;;;;28.35;13.70;;;;;;;;;;5013522;28;20092;-67
2022/01/02 02:07:27;;;;;;;31.23;13.90;;;;;;;;;;5013404;28;20202;-72
2022/01/02 02:10:16;;;;;;;32.95;14.50;;;;;;;;;;5013512;28;20053;-71
2022/01/02 02:12:40;;;;;;;28.15;14.13;;;;;;;;;;5013060;28;20042;-69
2022/01/02 02:15:08;;;;;;;31.88;14.93;;;;;;;;;;5014100;28;20085;-69
2022/01/02 02:17:34;;;;;;;32.25;15.10;;;;;;;;;;5013482;28;20497;-69
2022/01/02 02:20:00;;;;;;;;;;;;;;;;;;5016633;28;20076;-66
2022/01/02 02:22:26;;;;;;;32.97;16.30;;;;;;;;;;5017205;28;20385;-70
2022/01/02 02:24:52;;;;;;;32.42;15.38;;;;;;;;;;5000502;28;20393;-76
2022/01/02 02:27:23;;;;;;;37.30;17.95;;;;;;;;;;5000046;28;20108;-77
2022/01/02 02:29:49;;;;;;;40.30;17.83;;;;;;;;;;5017140;28;20112;-67
2022/01/02 02:32:15;;;;;;;38.10;17.95;;;;;;;;;;5017274;28;20508;-67
2022/01/02 02:34:41;;;;;;;45.38;19.13;;;;;;;;;;5017222;28;20116;-71
2022/01/02 02:37:07;;;;;;;40.40;18.65;;;;;;;;;;5017434;28;20490;-69
2022/01/02 02:39:36;;;;;;;47.67;20.05;;;;;;;;;;5017720;28;20050;-68
2022/01/02 02:42:10;;;;;;;36.75;18.52;;;;;;;;;;5017319;28;20064;-69
2022/01/02 02:44:39;;;;;;;41.67;19.27;;;;;;;;;;5017814;28;20050;-71
2022/01/02 02:49:50;;;;;;;45.13;19.30;;;;;;;;;;5017805;28;20108;-75
2022/01/02 02:52:41;;;;;;;47.00;19.80;;;;;;;;;;5017347;28;20048;-80
2022/01/02 02:55:05;;;;;;;48.50;19.42;;;;;;;;;;5016506;28;20391;-82
2022/01/02 02:57:33;;;;;;;48.83;20.50;;;;;;;;;;5017074;28;20057;-82
2022/01/02 02:59:59;;;;;;;48.92;19.75;;;;;;;;;;5017127;28;20052;-79
2022/01/02 03:02:25;;;;;;;47.78;22.08;;;;;;;;;;4999660;28;20092;-80
2022/01/02 03:04:51;;;;;;;43.40;20.70;;;;;;;;;;5016889;28;20049;-86
2022/01/02 03:07:17;;;;;;;50.17;21.30;;;;;;;;;;5017071;28;20077;-78
2022/01/02 03:09:48;;;;;;;52.40;20.55;;;;;;;;;;5016930;28;20050;-82
2022/01/02 03:12:15;;;;;;;51.08;20.73;;;;;;;;;;5017007;28;20076;-79
2022/01/02 03:14:41;;;;;;;59.65;22.40;;;;;;;;;;5016819;28;20517;-82
2022/01/02 03:17:07;;;;;;;47.30;22.17;;;;;;;;;;5018079;28;20092;-83
2022/01/02 03:19:33;;;;;;;58.03;23.67;;;;;;;;;;4983846;28;20396;-82
2022/01/02 03:22:00;;;;;;;53.13;22.20;;;;;;;;;;5000055;28;20057;-84
2022/01/02 03:24:26;;;;;;;46.53;21.63;;;;;;;;;;5016727;28;20046;-82
2022/01/02 03:26:52;;;;;;;48.55;23.63;;;;;;;;;;5016708;28;20490;-78
2022/01/02 03:29:18;;;;;;;;;;;;;;;;;;5016680;28;20438;-77
2022/01/02 03:31:47;;;;;;;51.03;23.55;;;;;;;;;;5015703;28;19921;-78
2022/01/02 03:34:13;;;;;;;54.88;24.80;;;;;;;;;;5016799;28;20042;-76
2022/01/02 03:36:42;;;;;;;40.05;21.80;;;;;;;;;;5018530;28;20081;-89
2022/01/02 03:39:08;;;;;;;46.13;22.02;;;;;;;;;;5019261;28;20169;-86
2022/01/02 03:41:34;;;;;;;57.95;25.33;;;;;;;;;;4999715;28;20093;-87
2022/01/02 03:44:00;;;;;;;56.22;23.83;;;;;;;;;;5022307;28;20464;-84
2022/01/02 03:46:26;;;;;;;48.85;22.23;;;;;;;;;;5019414;28;20053;-87
2022/01/02 03:48:52;;;;;;;45.67;22.05;;;;;;;;;;5017604;28;20049;-79
2022/01/02 03:51:18;;;;;;;53.75;23.05;;;;;;;;;;4999471;28;20046;-79
2022/01/02 03:53:44;;;;;;;49.63;21.63;;;;;;;;;;5016285;28;20037;-78
2022/01/02 03:56:11;;;;;;;55.33;22.67;;;;;;;;;;5016414;28;20074;-80
2022/01/02 03:58:37;;;;;;;49.83;22.90;;;;;;;;;;4998343;28;20482;-75
2022/01/02 04:01:03;;;;;;;54.00;22.65;;;;;;;;;;5016523;28;20054;-78
2022/01/02 04:03:29;;;;;;;52.00;22.23;;;;;;;;;;5016836;28;20046;-76
2022/01/02 04:05:55;;;;;;;58.22;24.73;;;;;;;;;;5016376;28;20042;-78
2022/01/02 04:08:24;;;;;;;47.15;22.05;;;;;;;;;;5015900;28;20046;-78
2022/01/02 04:10:53;;;;;;;50.03;21.80;;;;;;;;;;5021731;28;20061;-76
2022/01/02 04:13:19;;;;;;;54.28;21.88;;;;;;;;;;5026306;28;20046;-77
2022/01/02 04:15:45;;;;;;;65.80;24.67;;;;;;;;;;5017737;28;20088;-81
2022/01/02 04:18:11;;;;;;;62.00;23.60;;;;;;;;;;5023646;28;20050;-81
2022/01/02 04:20:37;;;;;;;64.40;25.38;;;;;;;;;;4999961;28;20151;-83
2022/01/02 04:23:03;;;;;;;64.70;24.40;;;;;;;;;;5015902;28;20497;-79
2022/01/02 04:25:29;;;;;;;62.25;24.50;;;;;;;;;;4998511;28;20068;-81
2022/01/02 04:27:55;;;;;;;54.28;22.92;;;;;;;;;;4998234;28;20042;-82
2022/01/02 04:30:21;;;;;;;53.60;22.80;;;;;;;;;;5015575;28;20096;-81
2022/01/02 04:32:48;;;;;;;57.47;23.33;;;;;;;;;;5015520;28;20441;-84
2022/01/02 04:35:15;;;;;;;52.85;22.85;;;;;;;;;;5015527;28;20490;-81
2022/01/02 04:37:44;;;;;;;50.20;21.88;;;;;;;;;;5015369;28;20049;-82
2022/01/02 04:40:10;;;;;;;45.35;21.13;;;;;;;;;;5015483;28;20057;-82
2022/01/02 04:42:36;;;;;;;53.55;22.83;;;;;;;;;;5015411;28;20037;-82
2022/01/02 04:45:05;;;;;;;48.40;21.45;;;;;;;;;;5015500;28;20137;-94
2022/01/02 04:47:31;;;;;;;61.33;22.58;;;;;;;;;;5015159;28;20050;-82
2022/01/02 04:49:57;;;;;;;45.45;20.67;;;;;;;;;;4998289;28;20042;-84
2022/01/02 04:52:23;;;;;;;55.45;22.10;;;;;;;;;;5015033;28;20041;-82
2022/01/02 04:54:49;;;;;;;60.42;22.95;;;;;;;;;;4998570;28;20054;-79
2022/01/02 04:57:15;;;;;;;58.28;20.77;;;;;;;;;;5014817;28;20097;-73
2022/01/02 04:59:41;;;;;;;51.10;20.48;;;;;;;;;;4997270;28;20494;-77
2022/01/02 05:02:07;;;;;;;57.38;24.75;;;;;;;;;;5014996;28;20046;-75
2022/01/02 05:04:34;;;;;;;41.53;20.70;;;;;;;;;;5014837;28;20056;-75
2022/01/02 05:07:00;;;;;;;61.60;24.52;;;;;;;;;;5015225;28;20049;-72
2022/01/02 05:09:26;;;;;;;34.50;15.35;;;;;;;;;;5015601;28;20100;-77
2022/01/02 05:11:52;;;;;;;54.00;20.25;;;;;;;;;;5015573;28;20042;-86
2022/01/02 05:14:18;;;;;;;46.25;19.15;;;;;;;;;;5015443;28;20053;-74
2022/01/02 05:16:44;;;;;;;47.42;19.27;;;;;;;;;;5015459;28;20077;-71
2022/01/02 05:19:10;;;;;;;50.50;19.50;;;;;;;;;;5015278;28;20060;-68
2022/01/02 05:21:36;;;;;;;46.75;19.23;;;;;;;;;;5014424;28;20057;-70
2022/01/02 05:24:02;;;;;;;45.75;18.63;;;;;;;;;;5014455;28;20054;-70
2022/01/02 05:26:29;;;;;;;39.30;17.48;;;;;;;;;;5014439;28;20146;-71
2022/01/02 05:28:55;;;;;;;44.90;19.60;;;;;;;;;;5015098;28;20406;-69
2022/01/02 05:31:21;;;;;;;47.97;20.10;;;;;;;;;;5014376;28;20394;-70
2022/01/02 05:33:47;;;;;;;45.30;16.38;;;;;;;;;;5014332;28;20506;-74
2022/01/02 05:36:13;;;;;;;52.00;20.55;;;;;;;;;;5014292;28;20046;-74
2022/01/02 05:38:39;;;;;;;55.05;19.05;;;;;;;;;;5014273;28;20124;-73
2022/01/02 05:41:06;;;;;;;36.38;16.42;;;;;;;;;;5014133;28;20045;-75
2022/01/02 05:43:32;;;;;;;40.78;16.20;;;;;;;;;;5014632;28;20406;-72
2022/01/02 05:46:03;;;;;;;35.45;15.85;;;;;;;;;;5014639;28;20046;-70
2022/01/02 05:48:30;;;;;;;40.40;16.05;;;;;;;;;;5014103;28;20048;-76
2022/01/02 05:50:58;;;;;;;44.20;16.27;;;;;;;;;;5014593;28;20132;-73
2022/01/02 05:53:24;;;;;;;49.45;15.05;;;;;;;;;;5013439;28;20128;-74
2022/01/02 05:55:50;;;;;;;36.15;15.23;;;;;;;;;;5013962;28;20405;-74
2022/01/02 05:58:17;;;;;;;46.33;15.30;;;;;;;;;;5014250;28;20058;-73
2022/01/02 06:00:43;;;;;;;38.10;14.25;;;;;;;;;;5013936;28;20056;-77
2022/01/02 06:03:09;;;;;;;41.63;14.85;;;;;;;;;;5014286;28;20081;-74
2022/01/02 06:05:35;;;;;;;42.33;14.85;;;;;;;;;;5014513;28;20050;-73
2022/01/02 06:08:02;;;;;;;36.67;14.45;;;;;;;;;;5013721;28;20112;-74
2022/01/02 06:10:28;;;;;;;36.63;14.93;;;;;;;;;;5013857;28;20057;-75
2022/01/02 06:12:54;;;;;;;42.53;14.80;;;;;;;;;;5013909;28;20260;-76
2022/01/02 06:15:20;;;;;;;47.35;15.50;;;;;;;;;;5014001;28;20057;-76
2022/01/02 06:17:46;;;;;;;31.15;12.23;;;;;;;;;;5014605;28;20081;-81
2022/01/02 06:20:12;;;;;;;34.15;12.82;;;;;;;;;;5014500;28;20045;-87
2022/01/02 06:22:38;;;;;;;37.10;13.20;;;;;;;;;;5013691;28;20038;-73
2022/01/02 06:25:05;;;;;;;32.78;13.85;;;;;;;;;;5013355;28;20045;-78
2022/01/02 06:27:31;;;;;;;38.42;13.13;;;;;;;;;;5013320;28;20453;-78
2022/01/02 06:29:57;;;;;;;35.45;13.25;;;;;;;;;;5013448;28;20137;-76
2022/01/02 06:32:23;;;;;;;39.83;14.57;;;;;;;;;;5014181;28;20050;-79
2022/01/02 06:34:49;;;;;;;39.72;14.43;;;;;;;;;;5014214;28;20096;-87
2022/01/02 06:37:15;;;;;;;32.40;13.95;;;;;;;;;;5013754;28;20045;-79
2022/01/02 06:39:41;;;;;;;31.92;13.38;;;;;;;;;;5013480;28;20076;-75
2022/01/02 06:42:07;;;;;;;40.25;14.15;;;;;;;;;;5013499;28;20053;-71
2022/01/02 06:44:33;;;;;;;30.80;13.10;;;;;;;;;;5013812;28;20049;-74
2022/01/02 06:46:59;;;;;;;47.17;14.43;;;;;;;;;;5013685;28;20487;-71
2022/01/02 06:49:25;;;;;;;34.13;13.10;;;;;;;;;;5013479;28;20046;-75
2022/01/02 06:51:51;;;;;;;35.00;13.32;;;;;;;;;;5013443;28;20049;-80
2022/01/02 06:54:17;;;;;;;33.55;11.30;;;;;;;;;;5013356;28;20050;-79
2022/01/02 06:56:43;;;;;;;34.22;11.65;;;;;;;;;;5013107;28;20467;-76
2022/01/02 06:59:10;;;;;;;31.85;12.52;;;;;;;;;;5012794;28;20456;-75
2022/01/02 07:01:36;;;;;;;32.70;11.00;;;;;;;;;;5013355;28;20053;-73
2022/01/02 07:04:02;;;;;;;30.20;10.95;;;;;;;;;;5013915;28;20042;-67
2022/01/02 07:06:28;;;;;;;34.45;10.80;;;;;;;;;;5016506;28;20129;-72
2022/01/02 07:08:54;;;;;;;29.73;10.18;;;;;;;;;;4999741;28;20481;-85
2022/01/02 07:11:20;;;;;;;30.63;10.63;;;;;;;;;;5017007;28;20046;-75
2022/01/02 07:13:46;;;;;;;25.77;10.27;;;;;;;;;;5016956;28;20502;-81
2022/01/02 07:16:12;;;;;;;28.95;9.57;;;;;;;;;;5016764;28;20050;-72
2022/01/02 07:18:38;;;;;;;30.88;10.45;;;;;;;;;;5016846;28;20042;-70
2022/01/02 07:21:04;;;;;;;22.75;8.60;;;;;;;;;;5016763;28;20402;-76
2022/01/02 07:23:30;;;;;;;23.50;8.10;;;;;;;;;;5016621;28;20050;-75
2022/01/02 07:25:56;;;;;;;18.80;7.60;;;;;;;;;;5016351;28;20394;-68
2022/01/02 07:28:22;;;;;;;19.55;7.32;;;;;;;;;;5016551;28;20046;-75
2022/01/02 07:30:48;;;;;;;22.70;6.80;;;;;;;;;;5017434;28;20136;-76
2022/01/02 07:33:14;;;;;;;20.70;7.20;;;;;;;;;;4999041;28;20046;-73
2022/01/02 07:35:41;;;;;;;21.05;7.47;;;;;;;;;;5016804;28;20046;-87
2022/01/02 07:38:07;;;;;;;19.45;6.95;;;;;;;;;;5017201;28;20045;-80
2022/01/02 07:40:33;;;;;;;26.45;8.23;;;;;;;;;;5016318;28;20104;-73
2022/01/02 07:42:59;;;;;;;20.35;7.32;;;;;;;;;;5016332;28;20042;-73
2022/01/02 07:45:25;;;;;;;22.50;7.45;;;;;;;;;;5016118;28;20049;-76
2022/01/02 07:47:51;;;;;;;19.23;6.95;;;;;;;;;;5016305;28;20050;-75
2022/01/02 07:50:18;;;;;;;20.35;7.53;;;;;;;;;;5016159;28;20049;-79
2022/01/02 07:52:44;;;;;;;19.73;6.78;;;;;;;;;;4998663;28;20390;-85
2022/01/02 07:55:10;;;;;;;25.45;6.93;;;;;;;;;;5016112;28;20045;-75
2022/01/02 07:57:36;;;;;;;19.33;7.65;;;;;;;;;;5016179;28;20455;-83
2022/01/02 08:00:03;;;;;;;20.60;7.05;;;;;;;;;;5016571;28;20054;-83
2022/01/02 08:02:29;;;;;;;25.67;8.60;;;;;;;;;;4998478;28;20045;-76
2022/01/02 08:04:58;;;;;;;23.98;8.15;;;;;;;;;;5016343;28;20127;-75
2022/01/02 08:07:24;;;;;;;21.58;7.47;;;;;;;;;;5015746;28;20132;-73
2022/01/02 08:09:50;;;;;;;20.80;8.88;;;;;;;;;;5015630;28;20515;-67
2022/01/02 08:12:16;;;;;;;22.38;8.35;;;;;;;;;;5015672;28;20068;-69
2022/01/02 08:14:42;;;;;;;25.30;8.50;;;;;;;;;;5015635;28;20049;-65
2022/01/02 08:17:09;;;;;;;25.92;8.40;;;;;;;;;;5014857;28;20441;-69
2022/01/02 08:19:35;;;;;;;30.88;9.88;;;;;;;;;;5015544;28;20050;-68
2022/01/02 08:22:01;;;;;;;23.30;8.80;;;;;;;;;;5015559;28;20488;-66
2022/01/02 08:24:28;;;;;;;21.52;9.52;;;;;;;;;;4998210;28;20061;-70
2022/01/02 08:26:54;;;;;;;29.33;10.68;;;;;;;;;;5016074;28;20372;-70
2022/01/02 08:29:20;;;;;;;23.65;8.93;;;;;;;;;;5015436;28;20046;-67
2022/01/02 08:31:46;;;;;;;25.73;9.70;;;;;;;;;;4982284;28;20136;-71
2022/01/02 08:34:12;;;;;;;25.60;10.10;;;;;;;;;;5015439;28;20049;-65
2022/01/02 08:36:38;;;;;;;;;;;;;;;;;;5015913;28;20157;-70
2022/01/02 08:39:04;;;;;;;28.65;10.20;;;;;;;;;;5015431;28;19976;-78
2022/01/02 08:41:30;;;;;;;22.75;9.00;;;;;;;;;;5015148;28;20160;-77
2022/01/02 08:43:56;;;;;;;26.50;9.95;;;;;;;;;;5015190;28;20093;-67
2022/01/02 08:46:22;;;;;;;24.77;10.32;;;;;;;;;;5014662;28;20053;-70
2022/01/02 08:48:48;;;;;;;22.63;9.88;;;;;;;;;;5014723;28;20137;-71
2022/01/02 08:51:14;;;;;;;28.10;11.82;;;;;;;;;;5014490;28;20064;-75
2022/01/02 08:53:41;;;;;;;26.98;11.68;;;;;;;;;;5014622;28;20046;-73
2022/01/02 08:56:07;;;;;;;24.70;10.40;;;;;;;;;;5014274;28;20045;-78
2022/01/02 08:58:33;;;;;;;20.23;9.45;;;;;;;;;;4996771;28;20054;-76
2022/01/02 09:01:00;;;;;;;21.98;10.63;;;;;;;;;;5015168;28;20078;-75
2022/01/02 09:03:26;;;;;;;27.45;10.35;;;;;;;;;;5014312;28;20211;-69
2022/01/02 09:05:52;;;;;;;22.63;10.55;;;;;;;;;;5014937;28;20049;-69
2022/01/02 09:08:18;;;;;;;24.95;9.52;;;;;;;;;;5014777;28;20489;-68
2022/01/02 09:10:44;;;;;;;21.90;10.55;;;;;;;;;;5014705;28;20480;-76
2022/01/02 09:13:11;;;;;;;24.60;10.73;;;;;;;;;;4997784;28;20057;-86
2022/01/02 09:15:37;;;;;;;20.58;9.80;;;;;;;;;;4997163;28;20042;-82
2022/01/02 09:18:05;;;;;;;23.02;10.25;;;;;;;;;;5015429;28;20385;-77
2022/01/02 09:20:31;;;;;;;21.27;10.90;;;;;;;;;;5015227;28;20442;-81
2022/01/02 09:22:57;;;;;;;26.10;12.75;;;;;;;;;;5014968;28;20046;-74
2022/01/02 09:25:23;;;;;;;25.77;12.82;;;;;;;;;;5014753;28;20133;-68
2022/01/02 09:27:49;;;;;;;29.33;13.80;;;;;;;;;;4996898;28;20053;-81
2022/01/02 09:30:15;;;;;;;30.63;14.85;;;;;;;;;;5013735;28;20099;-80
2022/01/02 09:32:41;;;;;;;30.52;15.43;;;;;;;;;;5014762;28;20096;-73
2022/01/02 09:35:07;;;;;;;;;;;;;;;;;;5014470;28;20092;-77
2022/01/02 09:37:34;;;;;;;32.10;15.52;;;;;;;;;;5013942;28;20313;-71
2022/01/02 09:40:00;;;;;;;24.42;12.48;;;;;;;;;;4996164;28;20129;-77
2022/01/02 09:42:27;;;;;;;26.38;13.82;;;;;;;;;;5014053;28;20462;-72
2022/01/02 09:44:54;;;;;;;29.63;15.32;;;;;;;;;;5014831;28;20049;-66
2022/01/02 09:47:20;;;;;;;26.08;13.35;;;;;;;;;;5014135;28;20054;-67
2022/01/02 09:49:47;;;;;;;29.70;14.68;;;;;;;;;;4996830;28;20176;-67
2022/01/02 09:52:13;;;;;;;27.33;13.50;;;;;;;;;;5012765;28;20041;-71
2022/01/02 09:54:39;;;;;;;28.25;12.07;;;;;;;;;;5012704;28;20099;-73
2022/01/02 09:57:05;;;;;;;28.95;14.10;;;;;;;;;;5013376;28;20107;-68
2022/01/02 09:59:31;;;;;;;33.38;16.23;;;;;;;;;;5013418;28;20054;-75
2022/01/02 10:01:59;;;;;;;28.42;15.02;;;;;;;;;;5012599;28;20052;-70
2022/01/02 10:04:38;;;;;;;33.28;16.23;;;;;;;;;;5013264;28;20061;-73
2022/01/02 10:07:06;;;;;;;31.23;15.27;;;;;;;;;;5013046;28;20519;-75
2022/01/02 10:09:33;;;;;;;33.22;15.77;;;;;;;;;;4995848;28;20056;-75
2022/01/02 10:12:19;;;;;;;34.90;16.50;;;;;;;;;;5013159;28;20084;-71
2022/01/02 10:14:45;;;;;;;23.02;14.15;;;;;;;;;;5013418;28;20049;-69
2022/01/02 10:17:11;;;;;;;40.17;17.75;;;;;;;;;;5014064;28;20054;-65
2022/01/02 10:19:39;;;;;;;29.33;15.95;;;;;;;;;;4996187;28;20096;-76
2022/01/02 10:22:08;;;;;;;32.90;16.13;;;;;;;;;;5013508;28;20056;-71
2022/01/02 10:24:36;;;;;;;32.83;14.80;;;;;;;;;;5012799;28;20176;-79
2022/01/02 10:27:10;;;;;;;31.25;16.27;;;;;;;;;;5012925;28;20050;-73
2022/01/02 10:29:39;;;;;;;29.42;15.07;;;;;;;;;;5012642;28;20580;-76
2022/01/02 10:32:31;;;;;;;29.65;14.43;;;;;;;;;;5012521;28;20064;-68
2022/01/02 10:35:27;;;;;;;29.25;15.85;;;;;;;;;;5009235;28;20070;-82
2022/01/02 10:37:57;;;;;;;34.15;16.15;;;;;;;;;;4995438;28;20352;-71
2022/01/02 10:40:42;;;;;;;29.80;15.82;;;;;;;;;;5013834;28;20048;-71
2022/01/02 10:43:23;;;;;;;30.60;16.88;;;;;;;;;;5015707;28;20042;-71
2022/01/02 10:45:50;;;;;;;30.10;14.80;;;;;;;;;;5016783;28;20494;-71
2022/01/02 10:48:18;;;;;;;32.83;15.27;;;;;;;;;;5016785;28;20049;-69
2022/01/02 10:51:11;;;;;;;26.48;14.55;;;;;;;;;;5016974;28;20057;-84
2022/01/02 10:53:38;;;;;;;30.65;14.35;;;;;;;;;;5013512;28;20053;-71
2022/01/02 10:56:05;;;;;;;33.65;14.23;;;;;;;;;;5016425;28;20050;-73
2022/01/02 10:58:35;;;;;;;26.45;12.48;;;;;;;;;;5016093;28;20498;-67
2022/01/02 11:01:01;;;;;;;;;;;;;;;;;;5017026;28;20141;-82
2022/01/02 11:03:27;;;;;;;20.60;10.90;;;;;;;;;;4999705;28;19922;-80
2022/01/02 11:05:59;;;;;;;24.23;12.75;;;;;;;;;;4999274;28;20085;-75
2022/01/02 11:08:27;;;;;;;27.25;11.48;;;;;;;;;;5017134;28;20426;-76
2022/01/02 11:10:56;;;;;;;21.50;10.63;;;;;;;;;;5016211;28;20425;-76
2022/01/02 11:13:22;;;;;;;23.27;9.85;;;;;;;;;;5016395;28;20041;-84
2022/01/02 11:15:48;;;;;;;25.40;9.40;;;;;;;;;;4998746;28;20053;-73
2022/01/02 11:18:14;;;;;;;19.63;8.38;;;;;;;;;;5015750;28;20045;-85
2022/01/02 11:20:40;;;;;;;;;;;;;;;;;;5016144;28;20198;-82
2022/01/02 11:23:25;;;;;;;23.98;9.20;;;;;;;;;;5016675;28;20230;-81
2022/01/02 11:25:53;;;;;;;24.60;8.93;;;;;;;;;;5016083;28;20490;-80
2022/01/02 11:28:26;;;;;;;28.23;9.07;;;;;;;;;;5015414;28;20076;-86
2022/01/02 11:30:52;;;;;;;29.88;9.90;;;;;;;;;;5015285;28;20050;-82
2022/01/02 11:33:25;;;;;;;21.50;8.65;;;;;;;;;;5016257;28;20104;-74
2022/01/02 11:35:52;;;;;;;27.50;8.55;;;;;;;;;;5016003;28;20494;-79
2022/01/02 11:38:21;;;;;;;25.40;8.65;;;;;;;;;;5027103;28;20128;-75
2022/01/02 11:40:47;;;;;;;19.17;7.88;;;;;;;;;;5019185;28;20053;-76
2022/01/02 11:43:49;;;;;;;26.75;8.68;;;;;;;;;;5019981;28;20038;-67
2022/01/02 11:46:25;;;;;;;21.23;7.35;;;;;;;;;;4974838;28;20078;-71
2022/01/02 11:49:13;;;;;;;25.83;7.80;;;;;;;;;;5010243;28;20448;-77
2022/01/02 11:51:48;;;;;;;21.13;7.47;;;;;;;;;;5014236;28;20046;-83
2022/01/02 11:54:40;;;;;;;19.17;6.88;;;;;;;;;;5014959;28;20104;-76
2022/01/02 11:57:14;;;;;;;22.67;7.70;;;;;;;;;;5009232;28;20153;-76
2022/01/02 11:59:42;;;;;;;26.08;8.10;;;;;;;;;;5014221;28;20065;-77
2022/01/02 12:02:31;;;;;;;22.15;6.90;;;;;;;;;;5015079;28;20046;-73
2022/01/02 12:07:41;;;;;;;28.45;6.75;;;;;;;;;;5014910;28;20054;-71
2022/01/02 12:10:16;;;;;;;19.52;6.43;;;;;;;;;;5014362;28;20056;-79
2022/01/02 12:13:10;;;;;;;20.38;6.40;;;;;;;;;;5014354;28;20046;-75
2022/01/02 12:15:42;;;;;;;21.60;6.53;;;;;;;;;;5014111;28;20081;-76
2022/01/02 12:18:16;;;;;;;25.67;6.72;;;;;;;;;;5013115;28;20049;-72
2022/01/02 12:20:52;;;;;;;19.17;6.50;;;;;;;;;;5013149;28;20434;-77
2022/01/02 12:23:30;;;;;;;26.80;7.00;;;;;;;;;;5012801;28;20056;-75
2022/01/02 12:26:13;;;;;;;25.23;6.32;;;;;;;;;;5013241;28;20042;-73
2022/01/02 12:28:40;;;;;;;27.98;6.45;;;;;;;;;;4995882;28;20382;-77
2022/01/02 12:31:08;;;;;;;22.30;6.03;;;;;;;;;;5012686;28;20542;-83
2022/01/02 12:33:35;;;;;;;23.35;6.43;;;;;;;;;;4979607;28;20458;-75
2022/01/02 12:36:18;;;;;;;26.15;5.70;;;;;;;;;;5012279;28;20076;-72
2022/01/02 12:38:48;;;;;;;24.67;5.55;;;;;;;;;;5013284;28;20045;-72
2022/01/02 12:41:14;;;;;;;27.48;5.40;;;;;;;;;;5013755;28;20049;-74
2022/01/02 12:43:41;;;;;;;23.02;5.50;;;;;;;;;;5012618;28;20060;-68
2022/01/02 12:46:07;;;;;;;25.38;4.55;;;;;;;;;;5012611;28;20459;-80
2022/01/02 12:48:34;;;;;;;20.85;5.70;;;;;;;;;;5012820;28;20128;-74
2022/01/02 12:51:10;;;;;;;18.25;4.00;;;;;;;;;;5012760;28;20132;-72
2022/01/02 12:53:37;;;;;;;18.38;4.18;;;;;;;;;;4995621;28;20057;-70
2022/01/02 12:56:03;;;;;;;21.00;4.40;;;;;;;;;;5011916;28;20465;-70
2022/01/02 12:58:36;;;;;;;21.80;5.03;;;;;;;;;;5012355;28;20081;-70
2022/01/02 13:01:04;;;;;;;23.42;4.55;;;;;;;;;;4994534;28;20061;-79
2022/01/02 13:03:30;;;;;;;22.88;4.60;;;;;;;;;;5012552;28;20423;-70
2022/01/02 13:05:56;;;;;;;21.00;5.93;;;;;;;;;;4995094;28;20085;-70
2022/01/02 13:08:23;;;;;;;21.63;4.70;;;;;;;;;;5012206;28;20145;-78
2022/01/02 13:10:49;;;;;;;20.27;4.43;;;;;;;;;;5012471;28;20054;-64
2022/01/02 13:13:28;;;;;;;25.35;4.22;;;;;;;;;;5012358;28;20042;-71
2022/01/02 13:15:54;;;;;;;17.42;3.92;;;;;;;;;;5011878;28;20121;-68
2022/01/02 13:18:21;;;;;;;20.00;3.40;;;;;;;;;;5012526;28;20589;-68
2022/01/02 13:20:48;;;;;;;25.75;4.25;;;;;;;;;;5010948;28;20052;-71
2022/01/02 13:23:14;;;;;;;17.40;3.53;;;;;;;;;;5011546;28;20118;-71
2022/01/02 13:25:45;;;;;;;20.70;4.35;;;;;;;;;;5016226;28;20076;-76
2022/01/02 13:28:13;;;;;;;21.27;4.57;;;;;;;;;;5013163;28;20514;-70
2022/01/02 13:30:39;;;;;;;25.27;4.63;;;;;;;;;;5012647;28;20049;-79
2022/01/02 13:33:17;;;;;;;19.60;4.45;;;;;;;;;;5011182;28;20095;-74
2022/01/02 13:35:43;;;;;;;18.45;4.57;;;;;;;;;;4994308;28;20057;-67
2022/01/02 13:38:11;;;;;;;22.83;3.95;;;;;;;;;;4993607;28;20107;-70
2022/01/02 13:40:38;;;;;;;18.98;3.90;;;;;;;;;;4994179;28;20486;-68
2022/01/02 13:43:08;;;;;;;22.13;4.60;;;;;;;;;;5010928;28;20561;-64
2022/01/02 13:45:37;;;;;;;18.15;3.40;;;;;;;;;;5012006;28;20157;-74
2022/01/02 13:48:22;;;;;;;18.20;3.63;;;;;;;;;;5011155;28;20054;-75
2022/01/02 13:50:55;;;;;;;17.45;4.28;;;;;;;;;;5010983;28;20149;-72
2022/01/02 13:53:35;;;;;;;15.73;3.70;;;;;;;;;;5011210;28;20081;-69
2022/01/02 13:56:04;;;;;;;15.23;3.38;;;;;;;;;;4993600;28;20361;-69
2022/01/02 13:58:30;;;;;;;18.13;3.92;;;;;;;;;;5011293;28;20521;-66
2022/01/02 14:00:57;;;;;;;18.48;3.75;;;;;;;;;;5010688;28;20060;-74
2022/01/02 14:03:30;;;;;;;25.45;4.00;;;;;;;;;;4994262;28;20046;-71
2022/01/02 14:05:57;;;;;;;19.88;4.63;;;;;;;;;;5011329;28;20166;-72
2022/01/02 14:08:24;;;;;;;17.48;3.60;;;;;;;;;;5010963;28;20054;-70
2022/01/02 14:11:10;;;;;;;17.02;3.55;;;;;;;;;;5011556;28;20090;-65
2022/01/02 14:13:49;;;;;;;24.05;4.22;;;;;;;;;;4993738;28;20038;-66
2022/01/02 14:16:58;;;;;;;15.75;4.65;;;;;;;;;;5009988;28;20050;-74
2022/01/02 14:19:08;;;;;;;20.38;3.88;;;;;;;;;;5006975;28;20101;-70
2022/01/02 14:21:35;;;;;;;18.35;3.65;;;;;;;;;;5010704;28;20045;-67
2022/01/02 14:24:01;;;;;;;21.10;4.05;;;;;;;;;;5010580;28;20137;-67
2022/01/02 14:26:27;;;;;;;;;;;;;;;;;;5010369;28;20050;-70
2022/01/02 14:28:57;;;;;;;18.42;4.10;;;;;;;;;;5010050;28;20019;-72
2022/01/02 14:31:23;;;;;;;23.10;4.75;;;;;;;;;;5009538;28;20120;-68
2022/01/02 14:33:49;;;;;;;23.23;5.13;;;;;;;;;;5009801;28;20060;-67
2022/01/02 14:36:15;;;;;;;25.10;4.60;;;;;;;;;;5010816;28;20041;-66
2022/01/02 14:38:41;;;;;;;18.90;5.22;;;;;;;;;;5010701;28;20061;-68